Time;durP1;ratioP1;P1;durP2;ratioP2;P2;SDS_P1;SDS_P2;PMS_P1;PMS_P2;Temp;Humidity;BMP_temperature;BMP_pressure;BME280_temperature;BME280_humidity;BME280_pressure;Samples;Min_cycle;Max_cycle;Signal;HPM_P1;HPM_P2
2021/12/29 00:02:01;;;;;;;80.72;15.77;;;7.30;99.90;;;;;;5003260;28;20039;-71
2021/12/29 00:04:27;;;;;;;92.50;15.95;;;7.30;99.90;;;;;;4955091;28;20372;-70
2021/12/29 00:06:56;;;;;;;85.57;18.92;;;7.30;99.90;;;;;;4970627;28;20050;-70
2021/12/29 00:09:23;;;;;;;83.15;17.80;;;7.30;99.90;;;;;;4970984;28;20039;-71
2021/12/29 00:11:50;;;;;;;115.00;19.42;;;7.30;99.90;;;;;;4970457;28;20057;-70
2021/12/29 00:14:16;;;;;;;117.43;19.95;;;7.30;99.90;;;;;;4970941;28;20042;-70
2021/12/29 00:16:42;;;;;;;132.73;19.13;;;7.30;99.90;;;;;;4969460;28;20043;-70
2021/12/29 00:19:08;;;;;;;125.88;20.88;;;7.30;99.90;;;;;;5002992;28;20054;-70
2021/12/29 00:21:35;;;;;;;145.20;21.08;;;7.30;99.90;;;;;;4968138;28;20050;-70
2021/12/29 00:24:04;;;;;;;96.97;18.77;;;7.30;99.90;;;;;;4954438;28;20042;-71
2021/12/29 00:26:31;;;;;;;119.03;17.45;;;7.30;99.90;;;;;;5002882;28;20183;-70
2021/12/29 00:29:01;;;;;;;106.28;17.63;;;7.20;99.90;;;;;;4970695;28;20047;-70
2021/12/29 00:31:31;;;;;;;84.10;15.38;;;7.20;99.90;;;;;;5002809;28;20126;-71
2021/12/29 00:33:58;;;;;;;96.20;15.10;;;7.10;99.90;;;;;;4990822;28;20078;-70
2021/12/29 00:36:24;;;;;;;82.03;14.05;;;7.10;99.90;;;;;;4970496;28;20394;-71
2021/12/29 00:38:50;;;;;;;113.95;15.70;;;7.00;99.90;;;;;;4970463;28;20035;-70
2021/12/29 00:41:17;;;;;;;83.00;13.88;;;6.90;99.90;;;;;;4970101;28;20460;-70
2021/12/29 00:43:44;;;;;;;94.05;15.95;;;6.90;99.90;;;;;;4970473;28;20038;-70
2021/12/29 00:46:12;;;;;;;84.13;15.60;;;6.90;99.90;;;;;;4970159;28;20053;-70
2021/12/29 00:48:41;;;;;;;89.60;14.65;;;6.90;99.90;;;;;;4970425;28;20372;-70
2021/12/29 00:51:07;;;;;;;60.38;12.85;;;6.90;99.90;;;;;;4967782;28;20035;-70
2021/12/29 00:53:34;;;;;;;77.97;14.52;;;6.90;99.90;;;;;;4970166;28;20116;-70
2021/12/29 00:56:00;;;;;;;71.75;14.55;;;6.90;99.90;;;;;;4969987;28;20034;-71
2021/12/29 00:58:26;;;;;;;84.93;15.68;;;6.90;99.90;;;;;;4969923;28;20038;-71
2021/12/29 01:00:53;;;;;;;67.85;13.85;;;7.00;99.90;;;;;;4970210;28;20522;-71
2021/12/29 01:03:19;;;;;;;62.53;13.60;;;7.00;99.90;;;;;;4969847;28;20050;-70
2021/12/29 01:05:45;;;;;;;59.70;12.02;;;6.90;99.90;;;;;;4953773;28;20100;-71
2021/12/29 01:08:11;;;;;;;58.97;12.32;;;7.00;99.90;;;;;;4953677;28;20057;-70
2021/12/29 01:10:38;;;;;;;76.05;13.13;;;7.00;99.90;;;;;;4953887;28;20051;-71
2021/12/29 01:13:08;;;;;;;61.95;12.30;;;7.00;99.90;;;;;;4969681;28;20039;-71
2021/12/29 01:15:56;;;;;;;66.80;10.73;;;7.00;99.90;;;;;;4969754;28;20043;-71
2021/12/29 01:18:23;;;;;;;73.63;13.88;;;7.10;99.90;;;;;;4953486;28;20053;-71
2021/12/29 01:20:49;;;;;;;70.82;14.80;;;7.10;99.90;;;;;;4967340;28;20136;-71
2021/12/29 01:23:15;;;;;;;76.65;13.73;;;7.10;99.90;;;;;;4953588;28;20134;-71
2021/12/29 01:25:41;;;;;;;63.00;13.43;;;7.10;99.90;;;;;;4969741;28;20126;-70
2021/12/29 01:28:07;;;;;;;66.97;13.68;;;7.10;99.90;;;;;;4969130;28;20050;-70
2021/12/29 01:30:33;;;;;;;59.42;12.98;;;7.10;99.90;;;;;;4953516;28;20050;-70
2021/12/29 01:33:05;;;;;;;79.50;14.45;;;7.00;99.90;;;;;;4969248;28;20541;-70
2021/12/29 01:35:34;;;;;;;55.65;14.73;;;7.00;99.90;;;;;;4969672;28;20031;-70
2021/12/29 01:38:02;;;;;;;58.00;14.45;;;7.00;99.90;;;;;;4969349;28;20047;-70
2021/12/29 01:40:29;;;;;;;67.85;15.82;;;7.10;99.90;;;;;;4969445;28;20058;-70
2021/12/29 01:42:55;;;;;;;61.58;16.45;;;7.10;99.90;;;;;;5001749;28;20045;-70
2021/12/29 01:45:21;;;;;;;65.95;16.17;;;7.20;99.90;;;;;;5002118;28;20042;-70
2021/12/29 01:47:48;;;;;;;58.20;16.80;;;7.20;99.90;;;;;;5001732;28;20042;-70
2021/12/29 01:50:15;;;;;;;55.75;16.65;;;7.30;99.90;;;;;;4967024;28;20043;-70
2021/12/29 01:52:42;;;;;;;62.38;16.25;;;7.30;99.90;;;;;;4969170;28;20542;-70
2021/12/29 01:55:13;;;;;;;59.60;16.35;;;7.40;99.90;;;;;;4969191;28;20085;-70
2021/12/29 01:57:42;;;;;;;68.60;17.98;;;7.40;99.90;;;;;;4953064;28;20054;-70
2021/12/29 02:00:13;;;;;;;67.65;19.67;;;7.40;99.90;;;;;;4985263;28;20050;-71
2021/12/29 02:02:39;;;;;;;63.75;19.52;;;7.50;99.90;;;;;;4952997;28;20054;-70
2021/12/29 02:05:05;;;;;;;67.93;22.02;;;7.50;99.90;;;;;;4969212;28;20050;-70
2021/12/29 02:07:32;;;;;;;61.05;18.92;;;7.60;99.90;;;;;;4952934;28;20130;-70
2021/12/29 02:09:58;;;;;;;65.25;20.80;;;7.60;99.90;;;;;;5001656;28;20046;-70
2021/12/29 02:12:23;;;;;;;62.30;20.42;;;7.60;99.90;;;;;;4968832;28;20504;-70
2021/12/29 02:14:49;;;;;;;59.15;19.83;;;7.70;99.90;;;;;;4969218;28;20057;-70
2021/12/29 02:17:15;;;;;;;54.28;20.15;;;7.70;99.90;;;;;;4954875;28;20050;-71
2021/12/29 02:19:46;;;;;;;54.78;20.17;;;7.70;99.90;;;;;;5005747;28;20089;-71
2021/12/29 02:22:40;;;;;;;51.10;19.05;;;7.70;99.90;;;;;;5024402;28;20095;-71
2021/12/29 02:27:47;;;;;;;47.95;19.70;;;7.80;99.90;;;;;;5024396;28;20034;-71
2021/12/29 02:30:15;;;;;;;41.45;18.58;;;7.80;99.90;;;;;;5007575;28;20042;-71
2021/12/29 02:32:42;;;;;;;47.28;20.30;;;7.80;99.90;;;;;;4986088;28;20042;-70
2021/12/29 02:35:10;;;;;;;46.85;19.70;;;7.80;99.90;;;;;;4988236;28;20049;-71
2021/12/29 02:37:37;;;;;;;47.85;19.33;;;7.80;99.90;;;;;;5004591;28;20081;-71
2021/12/29 02:40:05;;;;;;;44.25;18.38;;;7.80;99.90;;;;;;5006703;28;20042;-71
2021/12/29 02:42:39;;;;;;;45.03;17.55;;;7.80;99.90;;;;;;5007642;28;20053;-71
2021/12/29 02:45:07;;;;;;;36.38;16.13;;;7.80;99.90;;;;;;5007930;28;20502;-70
2021/12/29 02:47:33;;;;;;;40.92;17.55;;;7.80;99.90;;;;;;5007851;28;20053;-71
2021/12/29 02:49:59;;;;;;;37.28;16.23;;;7.80;99.90;;;;;;4972962;28;20072;-71
2021/12/29 02:52:25;;;;;;;42.85;17.30;;;7.80;99.90;;;;;;5007627;28;20422;-71
2021/12/29 02:54:52;;;;;;;36.80;15.30;;;7.80;99.90;;;;;;4991195;28;20092;-71
2021/12/29 02:57:18;;;;;;;47.22;17.20;;;7.80;99.90;;;;;;4975062;28;20043;-71
2021/12/29 02:59:44;;;;;;;36.67;15.10;;;7.90;99.90;;;;;;4975112;28;20133;-71
2021/12/29 03:02:10;;;;;;;44.70;16.52;;;7.80;99.90;;;;;;5007762;28;20057;-71
2021/12/29 03:04:37;;;;;;;42.60;15.63;;;7.90;99.90;;;;;;4991023;28;20521;-71
2021/12/29 03:07:03;;;;;;;39.58;15.32;;;7.90;99.90;;;;;;5007635;28;20041;-71
2021/12/29 03:09:28;;;;;;;40.30;15.95;;;7.90;99.90;;;;;;5007249;28;20137;-70
2021/12/29 03:11:54;;;;;;;39.03;15.40;;;7.90;99.90;;;;;;4990995;28;20048;-71
2021/12/29 03:14:20;;;;;;;42.70;16.02;;;7.90;99.90;;;;;;4974646;28;20103;-71
2021/12/29 03:16:47;;;;;;;44.55;16.92;;;7.90;99.90;;;;;;4991234;28;20386;-70
2021/12/29 03:19:13;;;;;;;47.08;17.13;;;7.90;99.90;;;;;;4958325;28;20050;-71
2021/12/29 03:21:40;;;;;;;45.67;17.10;;;7.80;99.90;;;;;;4988473;28;20122;-70
2021/12/29 03:24:07;;;;;;;41.95;18.52;;;7.80;99.90;;;;;;5007079;28;20076;-71
2021/12/29 03:26:33;;;;;;;46.75;17.42;;;7.80;99.90;;;;;;5007399;28;20042;-70
2021/12/29 03:28:59;;;;;;;40.60;17.95;;;7.80;99.90;;;;;;5007019;28;20054;-70
2021/12/29 03:31:27;;;;;;;55.75;19.25;;;7.80;99.90;;;;;;5007049;28;20462;-71
2021/12/29 03:33:53;;;;;;;43.72;18.13;;;7.70;99.90;;;;;;5021873;28;20034;-71
2021/12/29 03:36:20;;;;;;;50.00;19.10;;;7.70;99.90;;;;;;4994159;28;20042;-71
2021/12/29 03:38:48;;;;;;;48.88;18.85;;;7.70;99.90;;;;;;4977524;28;20052;-70
2021/12/29 03:41:17;;;;;;;50.58;19.05;;;7.70;99.90;;;;;;4993885;28;20072;-70
2021/12/29 03:43:44;;;;;;;47.60;20.05;;;7.70;99.90;;;;;;5026383;28;20075;-70
2021/12/29 03:46:11;;;;;;;44.13;18.02;;;7.70;99.90;;;;;;5026461;28;20042;-71
2021/12/29 03:48:38;;;;;;;50.55;19.27;;;7.70;99.90;;;;;;4993544;28;20038;-70
2021/12/29 03:51:05;;;;;;;47.88;18.27;;;7.70;99.90;;;;;;5007327;28;20602;-70
2021/12/29 03:53:31;;;;;;;44.05;18.63;;;7.60;99.90;;;;;;5010153;28;20435;-71
2021/12/29 03:55:57;;;;;;;49.88;19.17;;;7.60;99.90;;;;;;5010138;28;20132;-71
2021/12/29 03:58:25;;;;;;;51.90;20.35;;;7.60;99.90;;;;;;4993447;28;20160;-71
2021/12/29 04:00:53;;;;;;;50.75;21.02;;;7.60;99.90;;;;;;5009860;28;20137;-71
2021/12/29 04:03:19;;;;;;;51.95;20.48;;;7.60;99.90;;;;;;5010033;28;20387;-71
2021/12/29 04:05:45;;;;;;;54.42;21.15;;;7.60;99.90;;;;;;5026148;28;20115;-71
2021/12/29 04:08:11;;;;;;;51.55;21.58;;;7.60;99.90;;;;;;5009825;28;20049;-71
2021/12/29 04:10:37;;;;;;;68.90;24.38;;;7.60;99.90;;;;;;5009818;28;20046;-71
2021/12/29 04:13:04;;;;;;;58.88;24.00;;;7.60;99.90;;;;;;4993572;28;20104;-71
2021/12/29 04:15:30;;;;;;;73.13;25.95;;;7.60;99.90;;;;;;4993465;28;20116;-70
2021/12/29 04:17:58;;;;;;;73.93;28.52;;;7.60;99.90;;;;;;4993029;28;20140;-71
2021/12/29 04:23:13;;;;;;;62.22;25.27;;;7.60;99.90;;;;;;4993158;28;20580;-71
2021/12/29 04:25:39;;;;;;;55.33;24.70;;;7.60;99.90;;;;;;5025911;28;20133;-71
2021/12/29 04:28:13;;;;;;;59.97;26.75;;;7.60;99.90;;;;;;4993608;28;20091;-71
2021/12/29 04:30:39;;;;;;;66.07;26.75;;;7.60;99.90;;;;;;4992929;28;20114;-71
2021/12/29 04:33:05;;;;;;;69.05;28.08;;;7.60;99.90;;;;;;5020496;28;20038;-71
2021/12/29 04:35:31;;;;;;;55.70;23.52;;;7.60;99.90;;;;;;4992944;28;20120;-71
2021/12/29 04:37:57;;;;;;;62.33;25.10;;;7.60;99.90;;;;;;4993007;28;20034;-71
2021/12/29 04:40:23;;;;;;;55.80;24.70;;;7.60;99.90;;;;;;4992806;28;20095;-71
2021/12/29 04:42:49;;;;;;;59.83;24.60;;;7.60;99.90;;;;;;4976725;28;20049;-71
2021/12/29 04:45:16;;;;;;;58.28;24.45;;;7.50;99.90;;;;;;4993036;28;20132;-71
2021/12/29 04:47:45;;;;;;;56.55;22.83;;;7.50;99.90;;;;;;4993115;28;20046;-71
2021/12/29 04:50:24;;;;;;;54.83;23.38;;;7.50;99.90;;;;;;4990498;28;20091;-71
2021/12/29 04:53:00;;;;;;;56.60;22.83;;;7.50;99.90;;;;;;4992730;28;20124;-69
2021/12/29 04:55:27;;;;;;;57.97;24.10;;;7.50;99.90;;;;;;4992528;28;20099;-69
2021/12/29 04:57:54;;;;;;;48.05;20.15;;;7.50;99.90;;;;;;4976560;28;20042;-69
2021/12/29 05:00:24;;;;;;;51.95;20.48;;;7.50;99.90;;;;;;4992783;28;20041;-69
2021/12/29 05:02:51;;;;;;;57.05;20.65;;;7.50;99.90;;;;;;4975881;28;20094;-69
2021/12/29 05:05:27;;;;;;;53.13;19.33;;;7.60;99.90;;;;;;4992542;28;20049;-69
2021/12/29 05:10:37;;;;;;;49.90;18.15;;;7.60;99.90;;;;;;4992378;28;20054;-69
2021/12/29 05:13:03;;;;;;;43.90;18.30;;;7.60;99.90;;;;;;4976301;28;20090;-69
2021/12/29 05:15:29;;;;;;;50.67;18.15;;;7.70;99.90;;;;;;4992527;28;20099;-69
2021/12/29 05:17:58;;;;;;;52.78;18.85;;;7.70;99.90;;;;;;4982815;28;20059;-69
2021/12/29 05:20:28;;;;;;;55.92;20.88;;;7.70;99.90;;;;;;4951103;28;20503;-69
2021/12/29 05:22:56;;;;;;;47.92;20.60;;;7.60;99.90;;;;;;4969957;28;20057;-69
2021/12/29 05:25:22;;;;;;;48.85;19.80;;;7.60;99.90;;;;;;4969497;28;20043;-69
2021/12/29 05:27:49;;;;;;;44.45;18.20;;;7.60;99.90;;;;;;4953553;28;20250;-69
2021/12/29 05:30:15;;;;;;;40.25;17.05;;;7.60;99.90;;;;;;4953435;28;20043;-69
2021/12/29 05:32:40;;;;;;;40.60;16.65;;;7.50;99.90;;;;;;4969753;28;20039;-69
2021/12/29 05:35:07;;;;;;;45.47;17.80;;;7.50;99.90;;;;;;4969339;28;20459;-69
2021/12/29 05:37:33;;;;;;;43.72;17.20;;;7.40;99.90;;;;;;4953390;28;20034;-69
2021/12/29 05:39:59;;;;;;;44.85;18.63;;;7.40;99.90;;;;;;4969556;28;20129;-68
2021/12/29 05:42:24;;;;;;;49.20;19.55;;;7.40;99.90;;;;;;4969375;28;20049;-69
2021/12/29 05:44:50;;;;;;;47.83;19.38;;;7.40;99.90;;;;;;4969193;28;20066;-69
2021/12/29 05:47:16;;;;;;;48.65;19.88;;;7.30;99.90;;;;;;4985695;28;20049;-69
2021/12/29 05:49:42;;;;;;;71.80;24.15;;;7.40;99.90;;;;;;4967049;28;20082;-69
2021/12/29 05:52:08;;;;;;;52.15;19.45;;;7.30;99.90;;;;;;5001827;28;20512;-69
2021/12/29 05:54:34;;;;;;;50.75;19.38;;;7.40;99.90;;;;;;4969281;28;20122;-69
2021/12/29 05:57:00;;;;;;;49.10;18.05;;;7.40;99.90;;;;;;4969401;28;20051;-69
2021/12/29 05:59:25;;;;;;;43.78;17.35;;;7.40;99.90;;;;;;5001668;28;20035;-69
2021/12/29 06:01:51;;;;;;;50.63;18.48;;;7.40;99.90;;;;;;5001843;28;20053;-69
2021/12/29 06:04:17;;;;;;;42.75;15.65;;;7.40;99.90;;;;;;4953140;28;20442;-69
2021/12/29 06:06:43;;;;;;;55.10;17.80;;;7.40;99.90;;;;;;4952954;28;20061;-69
2021/12/29 06:09:08;;;;;;;49.63;17.48;;;7.40;99.90;;;;;;4969301;28;20043;-69
2021/12/29 06:11:34;;;;;;;47.75;17.45;;;7.50;99.90;;;;;;4968912;28;20050;-69
2021/12/29 06:14:00;;;;;;;45.60;15.48;;;7.50;99.90;;;;;;5002355;28;20043;-69
2021/12/29 06:16:27;;;;;;;52.53;15.52;;;7.50;99.90;;;;;;4956694;28;20047;-69
2021/12/29 06:18:54;;;;;;;54.58;16.45;;;7.50;99.90;;;;;;4972345;28;20051;-69
2021/12/29 06:21:20;;;;;;;42.15;14.65;;;7.50;99.90;;;;;;4986141;28;20108;-69
2021/12/29 06:23:47;;;;;;;60.97;16.98;;;7.50;99.90;;;;;;5005243;28;20086;-69
2021/12/29 06:26:14;;;;;;;41.55;14.85;;;7.50;99.90;;;;;;4972467;28;20047;-69
2021/12/29 06:28:40;;;;;;;45.20;15.82;;;7.60;99.90;;;;;;4956515;28;20399;-69
2021/12/29 06:31:07;;;;;;;47.55;14.85;;;7.60;99.90;;;;;;4956049;28;20043;-69
2021/12/29 06:33:33;;;;;;;52.75;16.15;;;7.60;99.90;;;;;;4972098;28;20043;-69
2021/12/29 06:35:59;;;;;;;59.80;16.85;;;7.60;99.90;;;;;;4972613;28;20042;-69
2021/12/29 06:38:25;;;;;;;51.42;16.15;;;7.60;99.90;;;;;;4972371;28;20569;-69
2021/12/29 06:40:50;;;;;;;65.35;17.45;;;7.60;99.90;;;;;;4955916;28;20410;-69
2021/12/29 06:43:16;;;;;;;72.25;17.77;;;7.60;99.90;;;;;;4972324;28;20043;-69
2021/12/29 06:45:42;;;;;;;58.10;16.13;;;7.60;99.90;;;;;;4971887;28;20125;-70
2021/12/29 06:48:08;;;;;;;58.08;15.88;;;7.60;99.90;;;;;;4971924;28;20051;-70
2021/12/29 06:50:35;;;;;;;58.30;16.20;;;7.60;99.90;;;;;;4969416;28;20047;-70
2021/12/29 06:53:01;;;;;;;80.57;17.88;;;7.60;99.90;;;;;;4972310;28;20122;-70
2021/12/29 06:55:27;;;;;;;66.15;16.50;;;7.60;99.90;;;;;;4971785;28;20043;-70
2021/12/29 06:57:53;;;;;;;70.05;17.13;;;7.60;99.90;;;;;;4971965;28;20046;-70
2021/12/29 07:00:19;;;;;;;61.03;15.93;;;7.60;99.90;;;;;;4955630;28;20054;-70
2021/12/29 07:02:46;;;;;;;64.78;15.80;;;7.60;99.90;;;;;;4972531;28;20633;-70
2021/12/29 07:05:11;;;;;;;50.83;14.88;;;7.70;99.90;;;;;;4956529;28;20049;-70
2021/12/29 07:07:38;;;;;;;43.33;12.70;;;7.60;99.90;;;;;;4972750;28;20055;-69
2021/12/29 07:10:05;;;;;;;40.05;12.07;;;7.70;99.90;;;;;;4972490;28;20051;-69
2021/12/29 07:12:31;;;;;;;44.13;12.77;;;7.70;99.90;;;;;;4956620;28;20042;-69
2021/12/29 07:14:57;;;;;;;37.22;11.32;;;7.70;99.90;;;;;;4972414;28;20047;-70
2021/12/29 07:17:23;;;;;;;30.90;10.05;;;7.70;99.90;;;;;;4976290;28;20035;-71
2021/12/29 07:19:49;;;;;;;25.77;9.15;;;7.70;99.90;;;;;;4993225;28;20050;-71
2021/12/29 07:22:15;;;;;;;33.25;10.50;;;7.70;99.90;;;;;;4994958;28;20038;-71
2021/12/29 07:24:40;;;;;;;38.13;12.02;;;7.70;99.90;;;;;;4978416;28;20053;-71
2021/12/29 07:27:06;;;;;;;27.65;9.85;;;7.80;99.90;;;;;;4978680;28;20053;-71
2021/12/29 07:29:32;;;;;;;37.10;10.07;;;7.70;99.90;;;;;;4978534;28;20055;-71
2021/12/29 07:31:58;;;;;;;27.95;9.48;;;7.70;99.90;;;;;;4994682;28;20089;-71
2021/12/29 07:34:25;;;;;;;30.30;9.95;;;7.70;99.90;;;;;;4995051;28;20030;-71
2021/12/29 07:36:51;;;;;;;34.90;10.45;;;7.80;99.90;;;;;;4994796;28;20077;-71
2021/12/29 07:39:18;;;;;;;36.67;11.50;;;7.80;99.90;;;;;;4994824;28;20045;-71
2021/12/29 07:41:45;;;;;;;45.88;12.57;;;7.80;99.90;;;;;;5011057;28;20509;-71
2021/12/29 07:44:13;;;;;;;43.63;11.65;;;7.80;99.90;;;;;;4994964;28;20046;-71
2021/12/29 07:46:41;;;;;;;43.05;12.80;;;7.80;99.90;;;;;;4994851;28;20130;-71
2021/12/29 07:49:07;;;;;;;42.30;11.88;;;7.80;99.90;;;;;;4978745;28;20041;-71
2021/12/29 07:51:32;;;;;;;91.10;16.75;;;7.80;99.90;;;;;;5008477;28;20607;-71
2021/12/29 07:53:59;;;;;;;70.38;15.60;;;7.70;99.90;;;;;;4978358;28;20123;-71
2021/12/29 07:56:26;;;;;;;49.97;12.65;;;7.80;99.90;;;;;;5011042;28;20042;-71
2021/12/29 07:58:52;;;;;;;44.30;12.70;;;7.70;99.90;;;;;;5010915;28;20038;-71
2021/12/29 08:01:18;;;;;;;50.95;12.77;;;7.70;99.90;;;;;;5027145;28;20121;-71
2021/12/29 08:03:45;;;;;;;55.15;12.90;;;7.70;99.90;;;;;;5010809;28;20129;-71
2021/12/29 08:06:11;;;;;;;53.08;13.48;;;7.80;99.90;;;;;;5027417;28;20073;-71
2021/12/29 08:08:36;;;;;;;55.00;14.50;;;7.80;99.90;;;;;;5027108;28;20508;-72
2021/12/29 08:11:02;;;;;;;42.83;13.70;;;7.80;99.90;;;;;;5010581;28;20073;-71
2021/12/29 08:13:28;;;;;;;43.47;12.93;;;7.80;99.90;;;;;;4994183;28;20494;-71
2021/12/29 08:15:54;;;;;;;38.15;11.27;;;7.80;99.90;;;;;;4994480;28;20045;-71
2021/12/29 08:18:20;;;;;;;37.80;11.63;;;7.80;99.90;;;;;;5010275;28;20133;-71
2021/12/29 08:20:46;;;;;;;42.08;11.98;;;7.80;99.90;;;;;;4992066;28;20046;-71
2021/12/29 08:23:12;;;;;;;47.30;14.30;;;7.80;99.90;;;;;;5026855;28;20125;-71
2021/12/29 08:25:38;;;;;;;41.30;12.48;;;7.80;99.90;;;;;;4994348;28;20050;-71
2021/12/29 08:28:05;;;;;;;43.90;12.48;;;7.80;99.90;;;;;;4993934;28;20046;-71
2021/12/29 08:30:31;;;;;;;46.38;13.25;;;7.80;99.90;;;;;;5026726;28;20469;-71
2021/12/29 08:32:57;;;;;;;41.67;11.88;;;7.80;99.90;;;;;;4986568;28;20103;-71
2021/12/29 08:35:23;;;;;;;36.03;12.88;;;7.80;99.90;;;;;;5007030;28;20035;-71
2021/12/29 08:37:50;;;;;;;37.17;12.82;;;7.80;99.90;;;;;;4989911;28;20034;-71
2021/12/29 08:40:16;;;;;;;39.92;12.85;;;7.80;99.90;;;;;;5007200;28;20391;-71
2021/12/29 08:42:43;;;;;;;37.42;13.30;;;7.80;99.90;;;;;;5006901;28;20059;-71
2021/12/29 08:45:12;;;;;;;36.90;12.65;;;7.80;99.90;;;;;;4990807;28;20056;-71
2021/12/29 08:47:38;;;;;;;35.78;12.15;;;7.90;99.90;;;;;;5006983;28;20401;-71
2021/12/29 08:50:07;;;;;;;35.83;12.55;;;7.90;99.90;;;;;;4988324;28;20152;-71
2021/12/29 08:52:33;;;;;;;46.78;13.20;;;7.90;99.90;;;;;;5006953;28;20417;-71
2021/12/29 08:54:59;;;;;;;54.22;15.15;;;7.90;99.90;;;;;;5006804;28;20050;-71
2021/12/29 08:57:25;;;;;;;41.95;12.55;;;7.90;99.90;;;;;;5006515;28;20042;-71
2021/12/29 08:59:51;;;;;;;25.40;10.38;;;7.90;99.90;;;;;;4990590;28;20046;-71
2021/12/29 09:02:17;;;;;;;26.45;10.45;;;7.90;99.90;;;;;;4974195;28;20057;-71
2021/12/29 09:04:42;;;;;;;31.55;11.25;;;7.90;99.90;;;;;;5006530;28;20047;-72
2021/12/29 09:07:08;;;;;;;34.53;11.95;;;7.90;99.90;;;;;;4990239;28;20042;-72
2021/12/29 09:09:34;;;;;;;25.88;10.55;;;7.90;99.90;;;;;;4990395;28;20038;-71
2021/12/29 09:12:00;;;;;;;28.85;10.25;;;7.90;99.90;;;;;;5006176;28;20379;-72
2021/12/29 09:14:26;;;;;;;28.65;10.90;;;7.90;99.90;;;;;;4980032;28;20046;-72
2021/12/29 09:16:51;;;;;;;34.15;11.60;;;7.90;99.90;;;;;;4993163;28;20539;-71
2021/12/29 09:19:17;;;;;;;26.77;10.57;;;7.90;99.90;;;;;;4993010;28;20058;-72
2021/12/29 09:21:44;;;;;;;26.38;11.23;;;7.90;99.90;;;;;;4991162;28;20037;-71
2021/12/29 09:24:11;;;;;;;21.80;10.88;;;7.90;99.90;;;;;;4991252;28;20048;-71
2021/12/29 09:26:38;;;;;;;21.88;9.00;;;7.90;99.90;;;;;;5079426;28;20088;-72
2021/12/29 09:29:05;;;;;;;21.73;10.82;;;7.90;99.90;;;;;;5077107;28;20045;-71
2021/12/29 09:31:30;;;;;;;22.05;9.35;;;7.90;99.90;;;;;;4992799;28;20535;-71
2021/12/29 09:33:57;;;;;;;22.02;6.55;;;7.90;99.90;;;;;;4992588;28;20073;-71
2021/12/29 09:36:23;;;;;;;27.02;7.50;;;7.90;99.90;;;;;;4991954;28;20038;-72
2021/12/29 09:38:49;;;;;;;18.85;8.77;;;7.90;99.90;;;;;;4991879;28;20042;-71
2021/12/29 09:41:17;;;;;;;18.25;6.75;;;8.00;99.90;;;;;;4991800;28;20041;-71
2021/12/29 09:43:46;;;;;;;17.58;6.25;;;8.00;99.90;;;;;;4992152;28;20042;-71
2021/12/29 09:46:12;;;;;;;21.45;7.22;;;8.00;99.90;;;;;;4992058;28;20037;-71
2021/12/29 09:48:39;;;;;;;18.67;6.70;;;8.00;99.90;;;;;;4991829;28;20049;-71
2021/12/29 09:51:08;;;;;;;25.42;7.05;;;8.00;99.90;;;;;;4989662;28;20501;-71
2021/12/29 09:53:35;;;;;;;15.83;5.80;;;8.10;99.90;;;;;;4991843;28;20042;-71
2021/12/29 09:56:01;;;;;;;15.98;5.60;;;8.10;99.90;;;;;;4975496;28;20125;-71
2021/12/29 09:58:26;;;;;;;24.90;6.80;;;8.10;99.90;;;;;;4991835;28;20121;-71
2021/12/29 10:00:57;;;;;;;23.40;6.13;;;8.10;99.90;;;;;;4991831;28;20046;-71
2021/12/29 10:03:24;;;;;;;;;;;8.10;99.90;;;;;;4976011;28;20042;-73
2021/12/29 10:05:52;;;;;;;23.48;9.68;;;8.10;99.90;;;;;;4975814;28;20007;-70
2021/12/29 10:08:27;;;;;;;23.38;8.65;;;8.20;99.90;;;;;;4991669;28;20115;-69
2021/12/29 10:11:18;;;;;;;22.25;9.18;;;8.20;99.90;;;;;;4975266;28;20044;-70
2021/12/29 10:13:49;;;;;;;25.88;7.38;;;8.20;99.90;;;;;;4975292;28;20034;-71
2021/12/29 10:16:19;;;;;;;29.88;7.93;;;8.20;99.90;;;;;;4991599;28;20040;-71
2021/12/29 10:18:48;;;;;;;27.85;7.72;;;8.30;99.90;;;;;;4958817;28;20055;-71
2021/12/29 10:21:17;;;;;;;23.05;7.45;;;8.30;99.90;;;;;;4950410;28;20568;-72
2021/12/29 10:23:46;;;;;;;25.92;7.57;;;8.30;99.90;;;;;;4952673;28;20499;-71
2021/12/29 10:26:11;;;;;;;27.05;7.47;;;8.40;99.90;;;;;;4968718;28;20079;-72
2021/12/29 10:28:44;;;;;;;23.38;6.50;;;8.40;99.90;;;;;;4968954;28;20086;-74
2021/12/29 10:31:17;;;;;;;21.17;6.05;;;8.40;99.90;;;;;;4968526;28;20504;-71
2021/12/29 10:33:47;;;;;;;29.30;7.07;;;8.40;99.90;;;;;;4952786;28;20039;-72
2021/12/29 10:36:49;;;;;;;19.60;6.75;;;8.50;99.90;;;;;;4985353;28;20387;-72
2021/12/29 10:39:49;;;;;;;15.73;6.03;;;8.50;99.90;;;;;;4952489;28;20035;-72
2021/12/29 10:42:24;;;;;;;26.65;6.40;;;8.60;99.90;;;;;;4938135;28;20483;-72
2021/12/29 10:44:53;;;;;;;21.35;5.95;;;8.60;99.90;;;;;;4968382;28;20049;-72
2021/12/29 10:47:27;;;;;;;16.55;5.70;;;8.60;99.90;;;;;;4968545;28;20051;-72
2021/12/29 10:50:09;;;;;;;20.80;6.07;;;8.60;99.90;;;;;;4965984;28;20578;-72
2021/12/29 10:52:45;;;;;;;23.98;6.43;;;8.60;99.90;;;;;;4968546;28;20352;-72
2021/12/29 10:55:22;;;;;;;18.90;6.25;;;8.60;99.90;;;;;;4968614;28;20129;-72
2021/12/29 10:58:06;;;;;;;22.23;6.30;;;8.60;99.90;;;;;;4968602;28;20039;-72
2021/12/29 11:00:35;;;;;;;20.83;6.60;;;8.70;99.90;;;;;;5002318;28;20049;-72
2021/12/29 11:03:12;;;;;;;20.05;5.88;;;8.70;99.90;;;;;;4971923;28;20039;-72
2021/12/29 11:05:41;;;;;;;20.35;6.05;;;8.70;99.90;;;;;;4971564;28;20051;-72
2021/12/29 11:08:11;;;;;;;21.58;5.72;;;8.70;99.90;;;;;;4971629;28;20057;-71
2021/12/29 11:10:37;;;;;;;17.40;5.85;;;8.70;99.90;;;;;;4971436;28;20492;-72
2021/12/29 11:13:04;;;;;;;12.18;4.90;;;8.70;99.90;;;;;;4971337;28;20042;-72
2021/12/29 11:15:41;;;;;;;15.55;5.43;;;8.70;99.90;;;;;;4971704;28;20038;-72
2021/12/29 11:18:12;;;;;;;22.25;6.25;;;8.70;99.90;;;;;;5004083;28;20047;-72
2021/12/29 11:20:39;;;;;;;15.63;4.80;;;8.70;99.90;;;;;;4969204;28;20147;-72
2021/12/29 11:23:14;;;;;;;13.90;4.70;;;8.70;99.90;;;;;;4971600;28;20051;-72
2021/12/29 11:25:44;;;;;;;22.67;5.32;;;8.60;99.90;;;;;;4971636;28;20043;-72
2021/12/29 11:28:22;;;;;;;13.02;5.05;;;8.60;99.90;;;;;;4971616;28;20129;-72
2021/12/29 11:30:48;;;;;;;19.08;5.85;;;8.60;99.90;;;;;;4971042;28;20499;-72
2021/12/29 11:33:14;;;;;;;12.63;4.25;;;8.60;99.90;;;;;;4955086;28;20068;-71
2021/12/29 11:35:47;;;;;;;12.20;4.15;;;8.60;99.90;;;;;;4971417;28;20140;-72
2021/12/29 11:38:15;;;;;;;10.98;4.75;;;8.50;99.90;;;;;;4971361;28;20039;-72
2021/12/29 11:40:46;;;;;;;16.38;5.13;;;8.50;99.90;;;;;;4971090;28;20640;-72
2021/12/29 11:43:18;;;;;;;12.50;4.60;;;8.50;99.90;;;;;;4955437;28;20049;-72
2021/12/29 11:45:46;;;;;;;11.85;4.57;;;8.40;99.90;;;;;;4970978;28;20050;-72
2021/12/29 11:48:13;;;;;;;16.90;4.82;;;8.40;99.90;;;;;;4955190;28;20078;-72
2021/12/29 11:50:46;;;;;;;14.30;5.32;;;8.40;99.90;;;;;;4968609;28;20529;-71
2021/12/29 11:53:23;;;;;;;11.27;4.65;;;8.40;99.90;;;;;;4971001;28;20122;-72
2021/12/29 11:55:53;;;;;;;12.93;6.28;;;8.30;99.90;;;;;;4971014;28;20039;-72
2021/12/29 11:58:42;;;;;;;15.23;4.22;;;8.30;99.90;;;;;;4970863;28;20042;-72
2021/12/29 12:01:11;;;;;;;17.92;5.07;;;8.30;99.90;;;;;;4970640;28;20043;-71
2021/12/29 12:03:58;;;;;;;15.13;5.25;;;8.30;99.90;;;;;;4970800;28;20503;-72
2021/12/29 12:06:39;;;;;;;16.08;4.70;;;8.30;99.90;;;;;;4954639;28;20562;-71
2021/12/29 12:09:11;;;;;;;15.57;5.07;;;8.20;99.90;;;;;;4954399;28;20050;-71
2021/12/29 12:12:02;;;;;;;13.30;5.05;;;8.20;99.90;;;;;;4970597;28;20051;-71
2021/12/29 12:14:31;;;;;;;10.60;4.93;;;8.20;99.90;;;;;;4970523;28;20050;-71
2021/12/29 12:17:10;;;;;;;12.85;5.10;;;8.20;99.90;;;;;;4970762;28;20046;-71
2021/12/29 12:19:37;;;;;;;10.07;4.70;;;8.20;99.90;;;;;;4954370;28;20108;-71
2021/12/29 12:22:10;;;;;;;16.77;5.03;;;8.20;99.90;;;;;;4969064;28;20054;-71
2021/12/29 12:24:42;;;;;;;15.70;6.03;;;8.20;99.90;;;;;;4980837;28;20039;-71
2021/12/29 12:27:39;;;;;;;10.77;5.65;;;8.20;99.90;;;;;;5026644;28;20035;-71
2021/12/29 12:30:13;;;;;;;15.15;5.10;;;8.20;99.90;;;;;;4970561;28;20074;-71
2021/12/29 12:32:47;;;;;;;16.33;5.45;;;8.20;99.90;;;;;;4970649;28;20427;-71
2021/12/29 12:35:29;;;;;;;13.70;5.70;;;8.20;99.90;;;;;;4970775;28;20399;-71
2021/12/29 12:37:55;;;;;;;13.27;5.47;;;8.20;99.90;;;;;;4970370;28;20095;-71
2021/12/29 12:40:30;;;;;;;17.00;6.55;;;8.20;99.90;;;;;;4970253;28;20078;-71
2021/12/29 12:43:07;;;;;;;14.63;5.78;;;8.20;99.90;;;;;;4954469;28;20380;-71
2021/12/29 12:45:36;;;;;;;11.80;5.90;;;8.20;99.90;;;;;;4954370;28;20108;-71
2021/12/29 12:48:29;;;;;;;13.18;6.68;;;8.20;99.90;;;;;;4967477;28;20629;-72
2021/12/29 12:50:59;;;;;;;21.38;7.20;;;8.10;99.90;;;;;;5021514;28;20044;-71
2021/12/29 12:53:34;;;;;;;18.83;7.55;;;8.20;99.90;;;;;;5067250;28;20037;-72
2021/12/29 12:56:02;;;;;;;17.30;7.22;;;8.10;99.90;;;;;;4969882;28;20077;-71